logo
Search for airport 
image banner adimage banner adimage banner ad
image banner ad

CYVD - R.J. (Bob) Andrew Field Regional

Located in Virden, Canada

ICAO - CYVD, IATA -

Data provided by Airmate  

General information

Coordinates: N49°52'42" W100°55'6"
Elevation is 1454 feet MSL.
Magnetic variation is 6.4389° East
View others Airports in Manitoba

Operational data

Special qualification required
Current time UTC:
Current local time:
Weather at : CYBR - Brandon Municipality ( 69 km )
METAR: CYBR 011203Z 06014KT 15SM -RA OVC007 13/13 A2998 RMK ST8 SLP160
TAF: TAF CYBR 011140Z 0112/0124 06015KT P6SM SCT006 OVC012 TEMPO 0112/0118 3SM -DZ BR OVC008 PROB30 0112/0116 1 1/2SM -DZ BR OVC005 FM011800 06015KT P6SM OVC020 TEMPO 0118/0124 6SM -RA BR OVC010 RMK NXT FCST BY 011800Z
View NOTAMs / SUP AIP / TFR affecting this airport [VIEW]
Communications frequencies: [VIEW]

Runways:

RWY identifierQFULength (ft)Width (ft)SurfaceLDA (ft)
0890°432075ASPH4320
26270°432075ASPH4320

Airport contact information

Address: Virden Canada

Satellite view of CYVD